createdAt,value
2017-07-16T00:02:06.654Z,16.50
2017-07-16T00:04:34.758Z,16.40
2017-07-16T00:07:02.887Z,16.40
2017-07-16T00:09:31.003Z,16.40
2017-07-16T00:11:59.091Z,16.30
2017-07-16T00:14:27.342Z,16.30
2017-07-16T00:16:55.429Z,16.30
2017-07-16T00:19:23.526Z,16.30
2017-07-16T00:21:52.850Z,16.30
2017-07-16T00:24:20.953Z,16.20
2017-07-16T00:26:49.086Z,16.20
2017-07-16T00:29:17.233Z,16.10
2017-07-16T00:31:45.470Z,16.10
2017-07-16T00:34:13.565Z,16.10
2017-07-16T00:36:41.691Z,16.10
2017-07-16T00:39:09.794Z,16.10
2017-07-16T00:41:37.922Z,16.00
2017-07-16T00:44:06.038Z,16.00
2017-07-16T00:46:34.133Z,16.00
2017-07-16T00:49:02.402Z,16.00
2017-07-16T00:51:30.486Z,16.00
2017-07-16T00:53:58.654Z,16.00
2017-07-16T00:56:26.756Z,15.90
2017-07-16T00:58:54.858Z,15.90
2017-07-16T01:01:22.974Z,16.00
2017-07-16T01:03:51.089Z,16.00
2017-07-16T01:06:19.186Z,15.90
2017-07-16T01:08:47.321Z,15.90
2017-07-16T01:11:15.410Z,15.90
2017-07-16T01:13:43.497Z,15.90
2017-07-16T01:16:11.745Z,15.90
2017-07-16T01:18:39.842Z,15.90
2017-07-16T01:21:07.945Z,15.90
2017-07-16T01:23:36.058Z,15.90
2017-07-16T01:26:04.177Z,15.90
2017-07-16T01:28:32.301Z,15.80
2017-07-16T01:31:00.397Z,15.80
2017-07-16T01:33:28.657Z,15.80
2017-07-16T01:35:56.751Z,15.80
2017-07-16T01:38:24.833Z,15.70
2017-07-16T01:40:54.150Z,15.80
2017-07-16T01:43:22.253Z,15.70
2017-07-16T01:45:50.389Z,15.80
2017-07-16T01:48:18.489Z,15.80
2017-07-16T01:50:46.614Z,15.70
2017-07-16T01:53:14.844Z,15.80
2017-07-16T01:55:42.961Z,15.70
2017-07-16T01:58:11.085Z,15.70
2017-07-16T02:00:39.185Z,15.80
2017-07-16T02:03:07.306Z,15.80
2017-07-16T02:05:35.432Z,15.80
2017-07-16T02:08:03.545Z,15.80
2017-07-16T02:10:31.781Z,15.80
2017-07-16T02:12:59.894Z,15.80
2017-07-16T02:15:28.022Z,15.80
2017-07-16T02:17:56.137Z,15.90
2017-07-16T02:20:24.240Z,15.90
2017-07-16T02:22:52.369Z,15.90
2017-07-16T02:25:20.473Z,15.90
2017-07-16T02:27:49.513Z,15.90
2017-07-16T02:30:17.645Z,15.90
2017-07-16T02:32:45.754Z,15.90
2017-07-16T02:35:13.917Z,15.90
2017-07-16T02:37:42.034Z,15.90
2017-07-16T02:40:10.131Z,15.90
2017-07-16T02:42:38.269Z,16.00
2017-07-16T02:45:06.358Z,16.00
2017-07-16T02:47:34.469Z,15.90
2017-07-16T02:50:03.814Z,15.90
2017-07-16T02:52:31.911Z,15.90
2017-07-16T02:55:00.145Z,15.90
2017-07-16T02:57:28.250Z,15.90
2017-07-16T02:59:56.430Z,15.90
2017-07-16T03:02:24.521Z,15.90
2017-07-16T03:04:52.623Z,15.90
2017-07-16T03:07:20.871Z,15.90
2017-07-16T03:09:48.970Z,15.90
2017-07-16T03:12:17.098Z,15.90
2017-07-16T03:14:45.209Z,16.00
2017-07-16T03:17:13.320Z,16.00
2017-07-16T03:19:41.446Z,15.90
2017-07-16T03:22:09.543Z,15.90
2017-07-16T03:24:37.805Z,15.90
2017-07-16T03:27:05.912Z,16.00
2017-07-16T03:29:34.010Z,15.90
2017-07-16T03:32:02.131Z,15.90
2017-07-16T03:34:30.229Z,15.90
2017-07-16T03:36:58.379Z,15.90
2017-07-16T03:39:26.483Z,16.00
2017-07-16T03:41:54.582Z,16.00
2017-07-16T03:44:22.825Z,16.00
2017-07-16T03:46:51.785Z,16.00
2017-07-16T03:49:19.918Z,16.10
2017-07-16T03:51:48.035Z,16.10
2017-07-16T03:54:16.192Z,16.10
2017-07-16T03:56:44.430Z,16.10
2017-07-16T03:59:12.533Z,16.10
2017-07-16T04:01:40.621Z,16.10
2017-07-16T04:04:08.778Z,16.20
2017-07-16T04:06:36.870Z,16.20
2017-07-16T04:09:04.958Z,16.20
2017-07-16T04:11:33.077Z,16.20
2017-07-16T04:14:01.173Z,16.20
2017-07-16T04:16:29.268Z,16.30
2017-07-16T04:18:57.393Z,16.30
2017-07-16T04:21:25.490Z,16.20
2017-07-16T04:23:53.577Z,16.20
2017-07-16T04:26:21.797Z,16.30
2017-07-16T04:28:49.920Z,16.20
2017-07-16T04:31:18.022Z,16.30
2017-07-16T04:33:46.135Z,16.30
2017-07-16T04:36:14.225Z,16.30
2017-07-16T04:38:42.452Z,16.30
2017-07-16T04:41:10.550Z,16.30
2017-07-16T04:43:39.867Z,16.40
2017-07-16T04:46:07.966Z,16.40
2017-07-16T04:48:36.092Z,16.40
2017-07-16T04:51:04.191Z,16.40
2017-07-16T04:53:32.293Z,16.40
2017-07-16T04:56:00.520Z,16.50
2017-07-16T04:58:28.625Z,16.50
2017-07-16T05:00:56.770Z,16.40
2017-07-16T05:03:24.862Z,16.40
2017-07-16T05:05:52.995Z,16.30
2017-07-16T05:08:21.089Z,16.40
2017-07-16T05:10:49.181Z,16.40
2017-07-16T05:13:17.305Z,16.40
2017-07-16T05:15:45.397Z,16.50
2017-07-16T05:18:13.504Z,16.50
2017-07-16T05:20:41.741Z,16.50
2017-07-16T05:23:09.830Z,16.60
2017-07-16T05:25:37.947Z,16.60
2017-07-16T05:28:06.035Z,16.60
2017-07-16T05:30:34.131Z,16.70
2017-07-16T05:33:02.361Z,16.70
2017-07-16T05:35:30.449Z,16.80
2017-07-16T05:37:58.571Z,16.80
2017-07-16T05:40:26.665Z,16.90
2017-07-16T05:42:54.788Z,16.90
2017-07-16T05:45:22.887Z,16.90
2017-07-16T05:47:50.977Z,16.90
2017-07-16T05:50:19.130Z,17.00
2017-07-16T05:52:47.258Z,17.00
2017-07-16T05:55:15.346Z,17.00
2017-07-16T05:57:43.441Z,17.10
2017-07-16T06:00:11.576Z,17.10
2017-07-16T06:02:39.666Z,17.10
2017-07-16T06:05:07.757Z,17.20
2017-07-16T06:07:35.980Z,17.20
2017-07-16T06:10:04.077Z,17.10
2017-07-16T06:12:32.168Z,17.10
2017-07-16T06:15:00.394Z,17.20
2017-07-16T06:17:28.498Z,17.30
2017-07-16T06:19:56.629Z,17.40
2017-07-16T06:22:24.725Z,17.50
2017-07-16T06:24:52.830Z,17.50
2017-07-16T06:27:20.971Z,17.50
2017-07-16T06:29:49.207Z,17.60
2017-07-16T06:32:17.339Z,17.60
2017-07-16T06:34:45.438Z,17.70
2017-07-16T06:37:13.575Z,17.70
2017-07-16T06:39:41.671Z,17.70
2017-07-16T06:42:09.801Z,17.80
2017-07-16T06:44:38.845Z,17.90
2017-07-16T06:47:06.953Z,18.00
2017-07-16T06:49:35.113Z,18.00
2017-07-16T06:52:03.225Z,18.10
2017-07-16T06:54:31.358Z,18.20
2017-07-16T06:56:59.457Z,18.20
2017-07-16T06:59:27.560Z,18.30
2017-07-16T07:01:54.705Z,18.30
2017-07-16T07:41:58.015Z,20.10
2017-07-16T07:44:24.805Z,20.30
2017-07-16T07:46:51.404Z,20.40
2017-07-16T07:49:18.064Z,20.50
2017-07-16T07:51:44.658Z,20.60
2017-07-16T07:54:12.226Z,20.70
2017-07-16T07:56:40.360Z,20.80
2017-07-16T07:59:08.458Z,20.80
2017-07-16T08:01:35.596Z,20.90
2017-07-16T08:04:03.378Z,20.90
2017-07-16T08:06:31.478Z,21.00
2017-07-16T08:09:00.844Z,21.10
2017-07-16T08:11:28.954Z,21.10
2017-07-16T08:13:57.053Z,21.20
2017-07-16T08:16:25.209Z,21.40
2017-07-16T08:18:53.326Z,21.40
2017-07-16T08:21:21.466Z,21.40
2017-07-16T08:23:49.581Z,21.60
2017-07-16T09:03:41.786Z,22.70
2017-07-16T09:06:09.894Z,22.90
2017-07-16T09:08:38.041Z,22.90
2017-07-16T09:11:06.142Z,22.90
2017-07-16T09:13:34.249Z,22.90
2017-07-16T09:16:02.385Z,23.00
2017-07-16T09:18:30.499Z,23.00
2017-07-16T09:20:58.680Z,23.20
2017-07-16T09:23:26.799Z,23.30
2017-07-16T09:25:54.887Z,23.50
2017-07-16T09:28:23.026Z,23.40
2017-07-16T09:30:51.127Z,23.40
2017-07-16T09:33:19.264Z,23.40
2017-07-16T09:35:47.391Z,23.30
2017-07-16T09:38:15.488Z,23.30
2017-07-16T09:40:43.597Z,23.40
2017-07-16T09:43:11.768Z,23.50
2017-07-16T09:45:39.866Z,23.50
2017-07-16T09:48:07.977Z,23.50
2017-07-16T09:50:36.109Z,23.60
2017-07-16T09:53:04.225Z,23.70
2017-07-16T09:55:32.354Z,23.80
2017-07-16T09:58:00.444Z,24.00
2017-07-16T10:00:28.553Z,24.20
2017-07-16T10:02:58.006Z,24.40
2017-07-16T10:05:26.130Z,24.50
2017-07-16T10:07:54.231Z,24.70
2017-07-16T10:10:22.329Z,25.00
2017-07-16T10:12:50.459Z,25.20
2017-07-16T10:15:18.556Z,25.20
2017-07-16T10:17:46.736Z,25.30
2017-07-16T10:20:14.843Z,25.30
2017-07-16T10:22:42.972Z,25.30
2017-07-16T10:25:11.068Z,25.30
2017-07-16T10:27:39.165Z,25.30
2017-07-16T10:30:07.297Z,25.30
2017-07-16T10:32:35.538Z,25.40
2017-07-16T10:35:03.628Z,25.30
2017-07-16T10:37:31.740Z,25.20
2017-07-16T10:39:59.877Z,25.20
2017-07-16T10:42:27.989Z,25.30
2017-07-16T10:44:56.126Z,25.20
2017-07-16T10:47:24.235Z,25.10
2017-07-16T10:49:52.388Z,25.20
2017-07-16T10:52:20.637Z,25.20
2017-07-16T10:54:48.725Z,25.10
2017-07-16T10:57:16.820Z,25.00
2017-07-16T10:59:44.948Z,25.10
2017-07-16T11:02:13.073Z,25.20
2017-07-16T11:04:41.183Z,25.20
2017-07-16T11:07:09.320Z,25.30
2017-07-16T11:09:37.414Z,25.30
2017-07-16T11:12:05.510Z,25.40
2017-07-16T11:14:33.741Z,25.60
2017-07-16T11:17:01.832Z,25.60
2017-07-16T11:19:29.968Z,25.70
2017-07-16T11:21:58.066Z,25.70
2017-07-16T11:24:26.201Z,25.80
2017-07-16T11:26:54.290Z,25.90
2017-07-16T11:29:22.394Z,26.10
2017-07-16T11:31:50.651Z,26.30
2017-07-16T11:34:18.754Z,26.20
2017-07-16T11:36:46.855Z,26.30
2017-07-16T11:39:14.991Z,26.20
2017-07-16T11:41:43.091Z,26.10
2017-07-16T11:44:11.193Z,26.10
2017-07-16T11:46:39.349Z,25.90
2017-07-16T11:49:07.471Z,26.10
2017-07-16T11:51:35.605Z,26.40
2017-07-16T11:54:03.846Z,26.60
2017-07-16T11:56:31.947Z,26.60
2017-07-16T11:59:00.044Z,26.60
2017-07-16T12:01:29.292Z,26.50
2017-07-16T12:03:57.394Z,26.50
2017-07-16T12:06:25.525Z,26.60
2017-07-16T12:08:53.630Z,26.80
2017-07-16T12:11:21.809Z,26.90
2017-07-16T12:13:49.905Z,27.00
2017-07-16T12:16:18.003Z,27.10
2017-07-16T12:18:46.173Z,27.10
2017-07-16T12:21:14.308Z,27.10
2017-07-16T12:23:42.416Z,27.10
2017-07-16T12:26:10.510Z,27.00
2017-07-16T12:28:38.753Z,27.00
2017-07-16T12:31:06.841Z,27.10
2017-07-16T12:33:34.973Z,27.20
2017-07-16T12:36:03.114Z,27.20
2017-07-16T12:38:31.208Z,27.20
2017-07-16T12:41:00.677Z,27.20
2017-07-16T12:43:28.769Z,27.20
2017-07-16T12:45:56.866Z,27.10
2017-07-16T12:48:25.008Z,27.10
2017-07-16T12:50:53.120Z,27.20
2017-07-16T12:53:21.235Z,27.20
2017-07-16T12:55:49.349Z,27.20
2017-07-16T12:58:17.457Z,27.30
2017-07-16T13:00:45.637Z,27.30
2017-07-16T13:03:13.712Z,27.20
2017-07-16T13:05:42.236Z,27.20
2017-07-16T13:08:10.369Z,27.20
2017-07-16T13:10:38.472Z,27.20
2017-07-16T13:13:06.587Z,27.10
2017-07-16T13:15:34.682Z,27.20
2017-07-16T13:18:02.796Z,27.30
2017-07-16T13:20:31.013Z,27.30
2017-07-16T13:22:59.139Z,27.20
2017-07-16T13:25:27.220Z,27.30
2017-07-16T13:27:55.351Z,27.30
2017-07-16T13:30:23.461Z,27.20
2017-07-16T13:32:51.541Z,27.20
2017-07-16T13:35:19.780Z,27.20
2017-07-16T13:37:47.889Z,27.10
2017-07-16T13:40:16.065Z,27.20
2017-07-16T13:42:44.185Z,27.10
2017-07-16T13:45:12.328Z,27.20
2017-07-16T13:47:40.408Z,27.30
2017-07-16T13:50:08.554Z,27.40
2017-07-16T13:52:36.651Z,27.50
2017-07-16T13:55:04.877Z,27.60
2017-07-16T13:57:32.984Z,27.70
2017-07-16T14:00:01.112Z,27.70
2017-07-16T14:02:29.213Z,27.60
2017-07-16T14:04:57.318Z,27.70
2017-07-16T14:07:25.440Z,27.70
2017-07-16T14:09:53.543Z,27.70
2017-07-16T14:12:21.642Z,27.80
2017-07-16T14:14:49.911Z,27.80
2017-07-16T14:17:17.995Z,27.80
2017-07-16T14:19:46.117Z,28.00
2017-07-16T14:22:14.209Z,28.00
2017-07-16T14:24:42.341Z,28.20
2017-07-16T14:27:10.442Z,28.00
2017-07-16T14:29:38.558Z,28.00
2017-07-16T14:32:06.708Z,28.20
2017-07-16T14:34:34.808Z,28.30
2017-07-16T14:37:02.889Z,28.50
2017-07-16T14:39:31.040Z,28.50
2017-07-16T14:41:59.133Z,28.50
2017-07-16T14:44:27.220Z,28.60
2017-07-16T14:46:55.360Z,28.70
2017-07-16T14:49:23.428Z,28.80
2017-07-16T14:51:51.742Z,28.90
2017-07-16T14:54:19.829Z,29.00
2017-07-16T14:56:47.929Z,29.00
2017-07-16T14:59:16.033Z,28.90
2017-07-16T15:01:44.134Z,28.80
2017-07-16T15:04:12.268Z,28.80
2017-07-16T15:06:40.352Z,28.80
2017-07-16T15:09:08.440Z,28.70
2017-07-16T15:11:36.588Z,28.50
2017-07-16T15:14:04.732Z,28.20
2017-07-16T15:16:32.817Z,28.10
2017-07-16T15:19:00.906Z,28.10
2017-07-16T15:21:29.040Z,27.90
2017-07-16T15:23:57.140Z,28.00
2017-07-16T15:26:25.225Z,27.90
2017-07-16T15:28:53.461Z,28.00
2017-07-16T15:31:21.566Z,28.00
2017-07-16T15:33:49.690Z,28.00
2017-07-16T15:36:17.778Z,27.90
2017-07-16T15:38:45.876Z,27.70
2017-07-16T15:41:14.045Z,27.60
2017-07-16T15:43:42.134Z,27.60
2017-07-16T15:46:10.225Z,27.50
2017-07-16T15:48:38.357Z,27.40
2017-07-16T15:51:06.502Z,27.40
2017-07-16T15:53:34.601Z,27.30
2017-07-16T15:56:02.719Z,27.50
2017-07-16T15:58:30.885Z,27.50
2017-07-16T16:00:58.977Z,27.50
2017-07-16T16:03:27.077Z,27.40
2017-07-16T16:05:55.217Z,27.30
2017-07-16T16:08:23.350Z,27.20
2017-07-16T16:10:51.446Z,27.30
2017-07-16T16:13:19.531Z,27.30
2017-07-16T16:15:47.786Z,27.20
2017-07-16T16:18:15.886Z,27.20
2017-07-16T16:20:43.995Z,27.20
2017-07-16T16:23:12.129Z,27.20
2017-07-16T16:25:40.222Z,27.30
2017-07-16T16:28:08.354Z,27.30
2017-07-16T16:30:36.457Z,27.20
2017-07-16T16:33:04.577Z,27.10
2017-07-16T16:35:32.815Z,27.20
2017-07-16T16:38:00.909Z,27.20
2017-07-16T16:40:29.052Z,27.30
2017-07-16T16:42:57.153Z,27.20
2017-07-16T16:45:25.287Z,27.20
2017-07-16T16:47:53.374Z,27.10
2017-07-16T16:50:21.504Z,26.90
2017-07-16T16:52:49.762Z,26.90
2017-07-16T16:55:17.874Z,26.80
2017-07-16T16:57:46.008Z,26.70
2017-07-16T17:00:14.209Z,26.60
2017-07-16T17:02:42.302Z,26.50
2017-07-16T17:05:10.397Z,26.40
2017-07-16T17:07:38.526Z,26.40
2017-07-16T17:10:06.758Z,26.20
2017-07-16T17:12:34.861Z,26.20
2017-07-16T17:15:03.021Z,26.00
2017-07-16T17:17:32.254Z,26.00
2017-07-16T17:20:00.357Z,25.90
2017-07-16T17:22:28.517Z,25.90
2017-07-16T17:24:56.630Z,25.90
2017-07-16T17:27:26.089Z,25.90
2017-07-16T17:29:54.229Z,25.90
2017-07-16T17:32:22.361Z,25.90
2017-07-16T17:34:50.461Z,25.80
2017-07-16T17:37:18.606Z,25.80
2017-07-16T17:39:46.706Z,25.80
2017-07-16T17:42:14.793Z,25.70
2017-07-16T17:44:43.045Z,25.60
2017-07-16T17:47:11.173Z,25.50
2017-07-16T17:49:39.347Z,25.40
2017-07-16T17:52:07.448Z,25.30
2017-07-16T17:54:35.538Z,25.30
2017-07-16T17:57:03.680Z,25.40
2017-07-16T17:59:31.798Z,25.40
2017-07-16T18:01:59.898Z,25.30
2017-07-16T18:04:28.038Z,25.30
2017-07-16T18:06:56.130Z,25.30
2017-07-16T18:09:24.243Z,25.30
2017-07-16T18:11:52.390Z,25.20
2017-07-16T18:14:20.492Z,25.20
2017-07-16T18:16:48.625Z,25.20
2017-07-16T18:19:16.783Z,25.00
2017-07-16T18:21:44.879Z,24.80
2017-07-16T18:24:13.001Z,24.80
2017-07-16T18:26:41.222Z,24.80
2017-07-16T18:29:09.330Z,24.80
2017-07-16T18:31:37.478Z,24.80
2017-07-16T18:34:05.605Z,24.90
2017-07-16T18:36:33.700Z,24.90
2017-07-16T18:39:01.960Z,24.90
2017-07-16T18:41:30.049Z,25.00
2017-07-16T18:43:58.185Z,24.90
2017-07-16T18:46:26.301Z,24.70
2017-07-16T18:48:54.440Z,24.60
2017-07-16T18:51:22.559Z,24.40
2017-07-16T18:53:50.685Z,24.40
2017-07-16T18:56:18.866Z,24.30
2017-07-16T18:58:46.952Z,24.20
2017-07-16T19:01:15.062Z,24.20
2017-07-16T19:28:56.221Z,24.00
2017-07-16T19:31:23.984Z,24.00
2017-07-16T19:33:52.290Z,24.00
2017-07-16T19:36:20.495Z,24.00
2017-07-16T19:38:48.745Z,24.00
2017-07-16T19:41:23.893Z,24.00
2017-07-16T19:43:55.755Z,24.00
2017-07-16T19:46:23.943Z,23.90
2017-07-16T19:48:52.097Z,23.80
2017-07-16T19:51:20.323Z,23.70
2017-07-16T19:53:48.500Z,23.60
2017-07-16T19:56:16.628Z,23.50
2017-07-16T19:58:44.733Z,23.40
2017-07-16T20:01:12.896Z,23.30
2017-07-16T20:03:40.992Z,23.30
2017-07-16T20:06:10.513Z,23.20
2017-07-16T20:08:38.674Z,23.10
2017-07-16T20:11:06.770Z,23.10
2017-07-16T20:13:34.898Z,23.00
2017-07-16T20:16:02.999Z,23.10
2017-07-16T20:18:31.158Z,23.10
2017-07-16T20:20:59.315Z,23.10
2017-07-16T20:23:27.420Z,23.10
2017-07-16T20:25:55.652Z,23.10
2017-07-16T20:28:23.762Z,23.10
2017-07-16T20:30:51.862Z,23.10
2017-07-16T20:33:19.990Z,23.00
2017-07-16T20:35:48.134Z,23.00
2017-07-16T20:38:16.241Z,23.00
2017-07-16T20:40:44.490Z,22.90
2017-07-16T20:43:12.592Z,22.90
2017-07-16T20:45:40.738Z,22.90
2017-07-16T20:48:08.862Z,22.90
2017-07-16T20:50:36.966Z,22.90
2017-07-16T20:53:05.107Z,22.80
2017-07-16T20:55:33.214Z,22.80
2017-07-16T20:58:01.327Z,22.80
2017-07-16T21:00:29.557Z,22.80
2017-07-16T21:02:57.667Z,22.70
2017-07-16T21:05:25.797Z,22.70
2017-07-16T21:07:53.968Z,22.60
2017-07-16T21:10:22.070Z,22.50
2017-07-16T21:12:50.172Z,22.50
2017-07-16T21:15:18.441Z,22.50
2017-07-16T21:17:46.592Z,22.40
2017-07-16T21:20:14.709Z,22.40
2017-07-16T21:22:42.819Z,22.30
2017-07-16T21:25:10.921Z,22.20
2017-07-16T21:27:39.047Z,22.20
2017-07-16T21:30:07.164Z,22.20
2017-07-16T21:32:35.267Z,22.20
2017-07-16T21:35:03.535Z,22.10
2017-07-16T21:37:31.677Z,22.00
2017-07-16T21:39:59.805Z,22.00
2017-07-16T21:42:27.898Z,21.90
2017-07-16T21:44:56.060Z,21.90
2017-07-16T21:47:24.187Z,21.80
2017-07-16T21:49:52.447Z,21.70
2017-07-16T21:52:20.550Z,21.70
2017-07-16T21:54:48.656Z,21.70
2017-07-16T21:57:16.786Z,21.60
2017-07-16T21:59:44.900Z,21.60
2017-07-16T22:02:13.047Z,21.60
2017-07-16T22:04:41.157Z,21.50
2017-07-16T22:07:09.261Z,21.50
2017-07-16T22:09:37.519Z,21.40
2017-07-16T22:12:05.628Z,21.40
2017-07-16T22:14:33.736Z,21.40
2017-07-16T22:17:01.875Z,21.40
2017-07-16T22:19:29.970Z,21.30
2017-07-16T22:21:58.081Z,21.30
2017-07-16T22:24:26.205Z,21.30
2017-07-16T22:26:54.306Z,21.30
2017-07-16T22:29:22.409Z,21.30
2017-07-16T22:31:51.877Z,21.30
2017-07-16T22:34:19.973Z,21.20
2017-07-16T22:36:48.076Z,21.10
2017-07-16T22:39:16.243Z,21.10
2017-07-16T22:41:44.345Z,21.10
2017-07-16T22:44:12.440Z,21.00
2017-07-16T22:46:40.681Z,21.00
2017-07-16T22:49:08.780Z,21.00
2017-07-16T22:51:36.933Z,20.90
2017-07-16T22:54:05.026Z,21.00
2017-07-16T22:56:33.126Z,21.00
2017-07-16T22:59:01.245Z,20.90
2017-07-16T23:01:29.478Z,20.90
2017-07-16T23:03:57.574Z,20.90
2017-07-16T23:06:25.708Z,20.90
2017-07-16T23:08:53.840Z,20.80
2017-07-16T23:11:21.949Z,20.80
2017-07-16T23:13:50.172Z,20.80
2017-07-16T23:16:18.285Z,20.80
2017-07-16T23:18:46.447Z,20.70
2017-07-16T23:21:14.541Z,20.70
2017-07-16T23:23:42.640Z,20.70
2017-07-16T23:26:10.772Z,20.70
2017-07-16T23:28:38.885Z,20.60
2017-07-16T23:31:06.978Z,20.60
2017-07-16T23:33:35.217Z,20.60
2017-07-16T23:36:03.300Z,20.60
2017-07-16T23:38:31.418Z,20.60
2017-07-16T23:40:59.579Z,20.60
2017-07-16T23:43:27.682Z,20.60
2017-07-16T23:45:55.782Z,20.60
2017-07-16T23:48:24.033Z,20.50
2017-07-16T23:50:52.125Z,20.50
2017-07-16T23:53:20.225Z,20.40
2017-07-16T23:55:48.386Z,20.40
2017-07-16T23:58:16.479Z,20.40
